createdAt,value
2023-10-21T00:03:03.771Z,97277.66
2023-10-21T00:08:05.770Z,97294.81
2023-10-21T00:13:07.501Z,97325.91
2023-10-21T00:18:09.226Z,97328.25
2023-10-21T00:23:10.984Z,97346.56
2023-10-21T00:28:12.663Z,97333.34
2023-10-21T00:33:15.390Z,97329.16
2023-10-21T00:38:17.260Z,97337.13
2023-10-21T00:43:38.563Z,97327.88
2023-10-21T00:48:41.432Z,97304.63
2023-10-21T00:53:44.031Z,97327.50
2023-10-21T00:58:45.905Z,97329.16
2023-10-21T01:03:48.351Z,97346.97
2023-10-21T01:08:50.386Z,97348.03
2023-10-21T01:13:52.987Z,97348.75
2023-10-21T01:18:54.749Z,97353.06
2023-10-21T01:23:56.468Z,97369.16
2023-10-21T01:28:58.201Z,97353.03
2023-10-21T01:34:00.040Z,97373.66
2023-10-21T01:39:02.679Z,97384.34
2023-10-21T01:44:04.519Z,97388.31
2023-10-21T01:49:06.286Z,97391.03
2023-10-21T01:54:08.042Z,97400.06
2023-10-21T01:59:09.799Z,97406.94
2023-10-21T02:04:11.594Z,97411.41
2023-10-21T02:09:13.505Z,97422.59
2023-10-21T02:14:15.809Z,97435.63
2023-10-21T02:19:17.938Z,97453.31
2023-10-21T02:24:19.735Z,97465.47
2023-10-21T02:29:21.519Z,97470.47
2023-10-21T02:34:24.104Z,97477.19
2023-10-21T02:39:26.172Z,97476.38
2023-10-21T02:44:29.691Z,97475.63
2023-10-21T02:49:31.890Z,97472.94
2023-10-21T02:54:34.441Z,97463.50
2023-10-21T02:59:36.802Z,97459.19
2023-10-21T03:04:38.568Z,97470.91
2023-10-21T03:09:40.271Z,97465.16
2023-10-21T03:14:42.017Z,97476.88
2023-10-21T03:19:43.861Z,97486.88
2023-10-21T03:24:45.620Z,97481.28
2023-10-21T03:29:47.350Z,97481.03
2023-10-21T03:34:49.044Z,97487.91
2023-10-21T03:39:50.767Z,97504.41
2023-10-21T03:44:52.992Z,97507.91
2023-10-21T03:49:54.734Z,97503.88
2023-10-21T03:54:56.562Z,97522.16
2023-10-21T04:00:01.240Z,97527.81
2023-10-21T04:05:03.134Z,97516.47
2023-10-21T04:10:05.529Z,97518.13
2023-10-21T04:15:11.568Z,97521.44
2023-10-21T04:20:14.192Z,97544.63
2023-10-21T04:25:16.637Z,97549.16
2023-10-21T04:30:18.363Z,97557.19
2023-10-21T04:35:20.644Z,97559.19
2023-10-21T04:40:22.432Z,97561.09
2023-10-21T04:45:24.401Z,97567.09
2023-10-21T04:50:28.209Z,97585.28
2023-10-21T04:55:30.172Z,97582.84
2023-10-21T05:00:32.093Z,97579.84
2023-10-21T05:05:36.024Z,97584.00
2023-10-21T05:10:37.866Z,97588.81
2023-10-21T05:15:39.858Z,97598.47
2023-10-21T05:20:41.545Z,97603.03
2023-10-21T05:25:43.872Z,97615.84
2023-10-21T05:30:45.654Z,97620.53
2023-10-21T05:35:47.370Z,97640.75
2023-10-21T05:40:49.140Z,97645.25
2023-10-21T05:45:50.871Z,97662.59
2023-10-21T05:50:52.570Z,97669.38
2023-10-21T05:55:56.854Z,97690.56
2023-10-21T06:01:06.711Z,97694.47
2023-10-21T06:06:09.167Z,97697.06
2023-10-21T06:11:11.060Z,97699.09
2023-10-21T06:16:12.832Z,97707.72
2023-10-21T06:21:14.611Z,97721.44
2023-10-21T06:26:16.326Z,97733.28
2023-10-21T06:31:18.037Z,97747.16
2023-10-21T06:36:20.302Z,97763.84
2023-10-21T06:41:22.661Z,97765.84
2023-10-21T06:46:25.070Z,97759.44
2023-10-21T06:51:27.908Z,97773.94
2023-10-21T06:56:29.735Z,97800.53
2023-10-21T07:01:31.471Z,97804.75
2023-10-21T07:06:33.345Z,97798.69
2023-10-21T07:11:35.105Z,97815.41
2023-10-21T07:16:36.883Z,97825.81
2023-10-21T07:21:38.832Z,97825.34
2023-10-21T07:26:40.549Z,97829.84
2023-10-21T07:31:44.260Z,97828.63
2023-10-21T07:36:45.972Z,97829.84
2023-10-21T07:41:47.657Z,97852.56
2023-10-21T07:46:49.401Z,97868.16
2023-10-21T07:51:52.236Z,97885.72
2023-10-21T07:56:55.245Z,97890.63
2023-10-21T08:01:58.337Z,97898.34
2023-10-21T08:07:01.844Z,97902.06
2023-10-21T08:12:03.813Z,97905.47
2023-10-21T08:17:05.637Z,97931.56
2023-10-21T08:22:07.642Z,97920.66
2023-10-21T08:27:09.479Z,97920.19
2023-10-21T08:32:11.212Z,97936.41
2023-10-21T08:37:12.908Z,97932.38
2023-10-21T08:42:18.209Z,97937.75
2023-10-21T08:47:20.983Z,97942.97
2023-10-21T08:52:22.798Z,97959.09
2023-10-21T08:57:25.383Z,97966.44
2023-10-21T09:02:27.486Z,97976.53
2023-10-21T09:07:45.568Z,97984.97
2023-10-21T09:12:47.421Z,97991.47
2023-10-21T09:17:53.585Z,98005.94
2023-10-21T09:23:03.960Z,98007.84
2023-10-21T09:28:06.003Z,98010.03
2023-10-21T09:33:10.474Z,98023.44
2023-10-21T09:38:19.632Z,98031.69
2023-10-21T09:43:22.906Z,98038.84
2023-10-21T09:48:26.846Z,98037.97
2023-10-21T09:53:39.790Z,98058.50
2023-10-21T09:58:42.242Z,98064.34
2023-10-21T10:03:44.970Z,98058.25
2023-10-21T10:08:48.973Z,98086.94
2023-10-21T10:13:51.043Z,98080.56
2023-10-21T10:18:57.093Z,98098.63
2023-10-21T10:24:04.031Z,98093.84
2023-10-21T10:29:26.806Z,98096.19
2023-10-21T10:34:28.711Z,98089.16
2023-10-21T10:39:40.157Z,98090.19
2023-10-21T10:44:43.343Z,98117.53
2023-10-21T10:49:55.542Z,98132.38
2023-10-21T10:54:57.255Z,98148.53
2023-10-21T10:59:59.103Z,98146.53
2023-10-21T11:05:00.919Z,98147.03
2023-10-21T11:10:03.753Z,98155.03
2023-10-21T11:15:07.531Z,98160.97
2023-10-21T11:20:10.017Z,98146.28
2023-10-21T11:25:12.152Z,98156.16
2023-10-21T11:30:13.987Z,98146.13
2023-10-21T11:35:15.924Z,98155.69
2023-10-21T11:40:18.389Z,98160.25
2023-10-21T11:45:22.986Z,98157.50
2023-10-21T11:50:25.900Z,98171.31
2023-10-21T11:55:54.364Z,98182.31
2023-10-21T12:01:16.240Z,98193.13
2023-10-21T12:06:18.616Z,98192.63
2023-10-21T12:11:29.450Z,98202.94
2023-10-21T12:16:53.087Z,98209.28
2023-10-21T12:22:08.578Z,98201.94
2023-10-21T12:27:30.631Z,98223.50
2023-10-21T12:32:32.429Z,98231.13
2023-10-21T12:37:52.812Z,98253.63
2023-10-21T12:43:12.824Z,98253.03
2023-10-21T12:48:19.407Z,98249.81
2023-10-21T12:53:21.726Z,98258.03
2023-10-21T12:58:23.492Z,98257.31
2023-10-21T13:03:25.315Z,98259.94
2023-10-21T13:08:27.111Z,98268.59
2023-10-21T13:13:29.363Z,98265.13
2023-10-21T13:18:31.785Z,98260.28
2023-10-21T13:23:35.962Z,98261.28
2023-10-21T13:28:38.037Z,98246.06
2023-10-21T13:33:39.788Z,98249.91
2023-10-21T13:38:41.549Z,98253.59
2023-10-21T13:43:43.612Z,98255.72
2023-10-21T13:48:45.348Z,98262.16
2023-10-21T13:53:47.096Z,98257.41
2023-10-21T13:58:48.807Z,98250.09
2023-10-21T14:03:50.647Z,98244.81
2023-10-21T14:08:53.121Z,98244.81
2023-10-21T14:13:55.205Z,98253.31
2023-10-21T14:18:58.101Z,98260.84
2023-10-21T14:23:59.790Z,98268.06
2023-10-21T14:29:01.542Z,98284.06
2023-10-21T14:34:03.295Z,98292.78
2023-10-21T14:39:08.089Z,98302.63
2023-10-21T14:44:10.226Z,98304.97
2023-10-21T14:49:12.173Z,98303.06
2023-10-21T14:54:14.458Z,98308.19
2023-10-21T14:59:16.178Z,98313.03
2023-10-21T15:04:18.084Z,98312.06
2023-10-21T15:09:20.951Z,98315.63
2023-10-21T15:14:34.258Z,98333.56
2023-10-21T15:19:48.115Z,98340.59
2023-10-21T15:24:51.609Z,98341.88
2023-10-21T15:29:55.820Z,98345.81
2023-10-21T15:34:58.192Z,98360.69
2023-10-21T15:40:01.579Z,98352.38
2023-10-21T15:45:03.677Z,98350.47
2023-10-21T15:50:06.454Z,98359.63
2023-10-21T15:55:09.070Z,98354.59
2023-10-21T16:00:15.963Z,98350.72
2023-10-21T16:05:18.056Z,98356.34
2023-10-21T16:10:19.759Z,98351.75
2023-10-21T16:15:21.533Z,98355.22
2023-10-21T16:20:23.390Z,98372.47
2023-10-21T16:25:25.104Z,98386.25
2023-10-21T16:30:28.099Z,98387.13
2023-10-21T16:35:29.871Z,98400.22
2023-10-21T16:40:31.822Z,98407.59
2023-10-21T16:45:33.560Z,98424.56
2023-10-21T16:50:35.267Z,98437.78
2023-10-21T16:55:37.145Z,98434.91
2023-10-21T17:00:38.843Z,98436.56
2023-10-21T17:05:40.582Z,98444.72
2023-10-21T17:10:42.288Z,98466.56
2023-10-21T17:15:44.930Z,98465.75
2023-10-21T17:20:46.715Z,98472.44
2023-10-21T17:25:48.668Z,98473.50
2023-10-21T17:30:50.488Z,98470.28
2023-10-21T17:35:52.283Z,98484.31
2023-10-21T17:40:53.982Z,98490.56
2023-10-21T17:45:55.808Z,98492.44
2023-10-21T17:50:57.789Z,98502.41
2023-10-21T17:56:00.309Z,98513.47
2023-10-21T18:01:05.552Z,98516.94
2023-10-21T18:06:07.475Z,98524.38
2023-10-21T18:11:09.161Z,98525.06
2023-10-21T18:16:11.011Z,98527.00
2023-10-21T18:21:12.810Z,98531.00
2023-10-21T18:26:14.560Z,98539.84
2023-10-21T18:31:16.385Z,98534.25
2023-10-21T18:36:18.351Z,98544.41
2023-10-21T18:41:20.149Z,98545.78
2023-10-21T18:46:21.949Z,98548.16
2023-10-21T18:51:26.723Z,98547.38
2023-10-21T18:56:28.664Z,98552.84
2023-10-21T19:01:32.068Z,98550.44
2023-10-21T19:06:37.412Z,98549.56
2023-10-21T19:11:39.478Z,98550.66
2023-10-21T19:16:41.205Z,98555.00
2023-10-21T19:21:47.467Z,98567.41
2023-10-21T19:26:49.349Z,98559.28
2023-10-21T19:31:51.304Z,98567.50
2023-10-21T19:36:53.157Z,98568.59
2023-10-21T19:41:57.739Z,98578.16
2023-10-21T19:47:04.589Z,98574.41
2023-10-21T19:52:06.972Z,98564.22
2023-10-21T19:57:09.028Z,98572.94
2023-10-21T20:02:11.701Z,98580.56
2023-10-21T20:07:13.423Z,98583.78
2023-10-21T20:12:15.141Z,98596.00
2023-10-21T20:17:16.836Z,98597.38
2023-10-21T20:22:18.525Z,98611.28
2023-10-21T20:27:20.677Z,98611.38
2023-10-21T20:32:22.413Z,98612.78
2023-10-21T20:37:27.101Z,98623.03
2023-10-21T20:42:28.998Z,98615.63
2023-10-21T20:47:30.943Z,98623.25
2023-10-21T20:52:32.697Z,98624.28
2023-10-21T20:57:34.443Z,98636.63
2023-10-21T21:02:36.336Z,98628.66
2023-10-21T21:07:50.401Z,98611.88
2023-10-21T21:12:55.551Z,98609.00
2023-10-21T21:17:57.492Z,98612.09
2023-10-21T21:22:59.222Z,98625.56
2023-10-21T21:28:00.956Z,98611.53
2023-10-21T21:33:02.735Z,98614.41
2023-10-21T21:38:05.542Z,98607.16
2023-10-21T21:43:07.364Z,98611.03
2023-10-21T21:48:09.517Z,98597.50
2023-10-21T21:53:12.380Z,98610.41
2023-10-21T21:58:14.310Z,98616.44
2023-10-21T22:03:16.117Z,98623.19
2023-10-21T22:08:17.880Z,98625.81
2023-10-21T22:13:19.885Z,98632.50
2023-10-21T22:18:22.626Z,98632.28
2023-10-21T22:23:27.571Z,98632.13
2023-10-21T22:28:29.331Z,98634.03
2023-10-21T22:33:31.102Z,98640.84
2023-10-21T22:38:33.009Z,98640.03
2023-10-21T22:43:37.574Z,98634.56
2023-10-21T22:48:39.383Z,98637.72
2023-10-21T22:53:41.208Z,98643.09
2023-10-21T22:58:43.479Z,98654.16
2023-10-21T23:03:46.382Z,98648.97
2023-10-21T23:08:49.677Z,98663.28
2023-10-21T23:13:52.679Z,98672.47
2023-10-21T23:18:54.814Z,98681.97
2023-10-21T23:23:56.632Z,98672.25
2023-10-21T23:28:58.353Z,98694.22
2023-10-21T23:34:00.059Z,98693.63
2023-10-21T23:39:01.865Z,98699.84
2023-10-21T23:44:03.647Z,98714.59
2023-10-21T23:49:05.455Z,98715.41
2023-10-21T23:54:07.420Z,98723.72
2023-10-21T23:59:09.120Z,98739.66
